sensor_id;sensor_type;location;lat;lon;timestamp;temperature;humidity
16247;DHT22;8231;50.866;7.944;2022-12-18T00:00:06;-11.10;99.90
16247;DHT22;8231;50.866;7.944;2022-12-18T00:02:39;-11.10;99.90
16247;DHT22;8231;50.866;7.944;2022-12-18T00:05:08;-11.10;99.90
16247;DHT22;8231;50.866;7.944;2022-12-18T00:07:36;-11.00;99.90
16247;DHT22;8231;50.866;7.944;2022-12-18T00:10:07;-11.00;99.90
16247;DHT22;8231;50.866;7.944;2022-12-18T00:12:35;-11.10;99.90
16247;DHT22;8231;50.866;7.944;2022-12-18T00:15:04;-11.10;99.90
16247;DHT22;8231;50.866;7.944;2022-12-18T00:17:32;-11.10;99.90
16247;DHT22;8231;50.866;7.944;2022-12-18T00:20:00;-11.10;99.90
16247;DHT22;8231;50.866;7.944;2022-12-18T00:22:28;-11.10;99.90
16247;DHT22;8231;50.866;7.944;2022-12-18T00:24:56;-11.10;99.90
16247;DHT22;8231;50.866;7.944;2022-12-18T00:27:25;-11.10;99.90
16247;DHT22;8231;50.866;7.944;2022-12-18T00:29:53;-11.10;99.90
16247;DHT22;8231;50.866;7.944;2022-12-18T00:32:21;-11.20;99.90
16247;DHT22;8231;50.866;7.944;2022-12-18T00:34:49;-11.20;99.90
16247;DHT22;8231;50.866;7.944;2022-12-18T00:37:17;-11.20;99.90
16247;DHT22;8231;50.866;7.944;2022-12-18T00:39:50;-11.20;99.90
16247;DHT22;8231;50.866;7.944;2022-12-18T00:42:19;-11.10;99.90
16247;DHT22;8231;50.866;7.944;2022-12-18T00:45:07;-11.20;99.90
16247;DHT22;8231;50.866;7.944;2022-12-18T00:47:39;-11.20;99.90
16247;DHT22;8231;50.866;7.944;2022-12-18T00:50:08;-11.20;99.90
16247;DHT22;8231;50.866;7.944;2022-12-18T00:52:39;-11.20;99.90
16247;DHT22;8231;50.866;7.944;2022-12-18T00:55:08;-11.20;99.90
16247;DHT22;8231;50.866;7.944;2022-12-18T00:57:36;-11.20;99.90
16247;DHT22;8231;50.866;7.944;2022-12-18T01:00:10;-11.00;99.90
16247;DHT22;8231;50.866;7.944;2022-12-18T01:02:38;-11.20;99.90
16247;DHT22;8231;50.866;7.944;2022-12-18T01:05:08;-11.30;99.90
16247;DHT22;8231;50.866;7.944;2022-12-18T01:07:36;-11.30;99.90
16247;DHT22;8231;50.866;7.944;2022-12-18T01:10:05;-11.30;99.90
16247;DHT22;8231;50.866;7.944;2022-12-18T01:12:34;-11.30;99.90
16247;DHT22;8231;50.866;7.944;2022-12-18T01:15:04;-11.30;99.90
16247;DHT22;8231;50.866;7.944;2022-12-18T01:17:34;-11.30;99.90
16247;DHT22;8231;50.866;7.944;2022-12-18T01:20:04;-11.30;99.90
16247;DHT22;8231;50.866;7.944;2022-12-18T01:22:33;-11.30;99.90
16247;DHT22;8231;50.866;7.944;2022-12-18T01:25:02;-11.30;99.90
16247;DHT22;8231;50.866;7.944;2022-12-18T01:27:32;-11.30;99.90
16247;DHT22;8231;50.866;7.944;2022-12-18T01:30:03;-11.30;99.90
16247;DHT22;8231;50.866;7.944;2022-12-18T01:32:33;-11.30;99.90
16247;DHT22;8231;50.866;7.944;2022-12-18T01:35:02;-11.30;99.90
16247;DHT22;8231;50.866;7.944;2022-12-18T01:37:30;-11.30;99.90
16247;DHT22;8231;50.866;7.944;2022-12-18T01:39:58;-11.30;99.90
16247;DHT22;8231;50.866;7.944;2022-12-18T01:42:26;-11.30;99.90
16247;DHT22;8231;50.866;7.944;2022-12-18T01:45:00;-11.30;99.90
16247;DHT22;8231;50.866;7.944;2022-12-18T01:47:36;-11.40;99.90
16247;DHT22;8231;50.866;7.944;2022-12-18T01:50:09;-11.70;99.90
16247;DHT22;8231;50.866;7.944;2022-12-18T01:52:38;-11.40;99.90
16247;DHT22;8231;50.866;7.944;2022-12-18T01:55:09;-11.40;99.90
16247;DHT22;8231;50.866;7.944;2022-12-18T01:57:39;-11.40;99.90
16247;DHT22;8231;50.866;7.944;2022-12-18T02:00:11;-11.40;99.90
16247;DHT22;8231;50.866;7.944;2022-12-18T02:02:41;-11.50;99.90
16247;DHT22;8231;50.866;7.944;2022-12-18T02:05:13;-11.50;99.90
16247;DHT22;8231;50.866;7.944;2022-12-18T02:07:49;-11.50;99.90
16247;DHT22;8231;50.866;7.944;2022-12-18T02:10:26;-11.50;99.90
16247;DHT22;8231;50.866;7.944;2022-12-18T02:13:02;-11.60;99.90
16247;DHT22;8231;50.866;7.944;2022-12-18T02:15:38;-11.60;99.90
16247;DHT22;8231;50.866;7.944;2022-12-18T02:18:12;-11.60;99.90
16247;DHT22;8231;50.866;7.944;2022-12-18T02:20:45;-11.60;99.90
16247;DHT22;8231;50.866;7.944;2022-12-18T02:23:24;-11.70;99.90
16247;DHT22;8231;50.866;7.944;2022-12-18T02:26:14;-11.70;99.90
16247;DHT22;8231;50.866;7.944;2022-12-18T02:28:46;-11.70;99.90
16247;DHT22;8231;50.866;7.944;2022-12-18T02:31:21;-11.70;99.90
16247;DHT22;8231;50.866;7.944;2022-12-18T02:33:54;-11.70;99.90
16247;DHT22;8231;50.866;7.944;2022-12-18T02:36:23;-11.70;99.90
16247;DHT22;8231;50.866;7.944;2022-12-18T02:38:54;-11.70;99.90
16247;DHT22;8231;50.866;7.944;2022-12-18T02:41:25;-11.70;99.90
16247;DHT22;8231;50.866;7.944;2022-12-18T02:43:56;-11.70;99.90
16247;DHT22;8231;50.866;7.944;2022-12-18T02:46:28;-11.70;99.90
16247;DHT22;8231;50.866;7.944;2022-12-18T02:49:14;-11.70;99.90
16247;DHT22;8231;50.866;7.944;2022-12-18T02:51:51;-11.70;99.90
16247;DHT22;8231;50.866;7.944;2022-12-18T02:54:38;-11.70;99.90
16247;DHT22;8231;50.866;7.944;2022-12-18T02:57:15;-11.80;99.90
16247;DHT22;8231;50.866;7.944;2022-12-18T02:59:50;-11.80;99.90
16247;DHT22;8231;50.866;7.944;2022-12-18T03:02:26;-11.80;99.90
16247;DHT22;8231;50.866;7.944;2022-12-18T03:05:02;-11.80;99.90
16247;DHT22;8231;50.866;7.944;2022-12-18T03:07:36;-11.80;99.90
16247;DHT22;8231;50.866;7.944;2022-12-18T03:10:13;-11.80;99.90
16247;DHT22;8231;50.866;7.944;2022-12-18T03:12:47;-11.80;99.90
16247;DHT22;8231;50.866;7.944;2022-12-18T03:15:22;-11.80;99.90
16247;DHT22;8231;50.866;7.944;2022-12-18T03:18:01;-11.80;99.90
16247;DHT22;8231;50.866;7.944;2022-12-18T03:20:32;-11.80;99.90
16247;DHT22;8231;50.866;7.944;2022-12-18T03:23:06;-11.60;99.90
16247;DHT22;8231;50.866;7.944;2022-12-18T03:25:39;-11.70;99.90
16247;DHT22;8231;50.866;7.944;2022-12-18T03:28:12;-11.70;99.90
16247;DHT22;8231;50.866;7.944;2022-12-18T03:30:43;-11.70;99.90
16247;DHT22;8231;50.866;7.944;2022-12-18T03:33:16;-11.70;99.90
16247;DHT22;8231;50.866;7.944;2022-12-18T03:35:48;-11.70;99.90
16247;DHT22;8231;50.866;7.944;2022-12-18T03:38:18;-11.70;99.90
16247;DHT22;8231;50.866;7.944;2022-12-18T03:40:58;-11.70;99.90
16247;DHT22;8231;50.866;7.944;2022-12-18T03:43:37;-11.70;99.90
16247;DHT22;8231;50.866;7.944;2022-12-18T03:46:17;-11.60;99.90
16247;DHT22;8231;50.866;7.944;2022-12-18T03:48:55;-11.60;99.90
16247;DHT22;8231;50.866;7.944;2022-12-18T03:51:28;-11.60;99.90
16247;DHT22;8231;50.866;7.944;2022-12-18T03:54:01;-11.60;99.90
16247;DHT22;8231;50.866;7.944;2022-12-18T03:56:38;-11.60;99.90
16247;DHT22;8231;50.866;7.944;2022-12-18T03:59:09;-11.60;99.90
16247;DHT22;8231;50.866;7.944;2022-12-18T04:01:41;-11.60;99.90
16247;DHT22;8231;50.866;7.944;2022-12-18T04:04:13;-11.60;99.90
16247;DHT22;8231;50.866;7.944;2022-12-18T04:06:44;-11.60;99.90
16247;DHT22;8231;50.866;7.944;2022-12-18T04:09:13;-11.50;99.90
16247;DHT22;8231;50.866;7.944;2022-12-18T04:11:46;-11.50;99.90
16247;DHT22;8231;50.866;7.944;2022-12-18T04:14:17;-11.50;99.90
16247;DHT22;8231;50.866;7.944;2022-12-18T04:16:49;-11.40;99.90
16247;DHT22;8231;50.866;7.944;2022-12-18T04:19:21;-11.40;99.90
16247;DHT22;8231;50.866;7.944;2022-12-18T04:21:50;-11.30;99.90
16247;DHT22;8231;50.866;7.944;2022-12-18T04:24:19;-11.20;99.90
16247;DHT22;8231;50.866;7.944;2022-12-18T04:26:58;-11.10;99.90
16247;DHT22;8231;50.866;7.944;2022-12-18T04:29:33;-10.90;99.90
16247;DHT22;8231;50.866;7.944;2022-12-18T04:32:01;-10.90;99.90
16247;DHT22;8231;50.866;7.944;2022-12-18T04:34:31;-10.80;99.90
16247;DHT22;8231;50.866;7.944;2022-12-18T04:36:59;-10.80;99.90
16247;DHT22;8231;50.866;7.944;2022-12-18T04:39:28;-10.80;99.90
16247;DHT22;8231;50.866;7.944;2022-12-18T04:42:01;-10.80;99.90
16247;DHT22;8231;50.866;7.944;2022-12-18T04:44:29;-10.70;99.90
16247;DHT22;8231;50.866;7.944;2022-12-18T04:46:58;-10.70;99.90
16247;DHT22;8231;50.866;7.944;2022-12-18T04:49:27;-10.60;99.90
16247;DHT22;8231;50.866;7.944;2022-12-18T04:51:55;-10.50;99.90
16247;DHT22;8231;50.866;7.944;2022-12-18T04:54:23;-10.40;99.90
16247;DHT22;8231;50.866;7.944;2022-12-18T04:56:51;-10.30;99.90
16247;DHT22;8231;50.866;7.944;2022-12-18T04:59:19;-10.20;99.90
16247;DHT22;8231;50.866;7.944;2022-12-18T05:01:47;-10.20;99.90
16247;DHT22;8231;50.866;7.944;2022-12-18T05:04:17;-10.10;99.90
16247;DHT22;8231;50.866;7.944;2022-12-18T05:06:45;-10.10;99.90
16247;DHT22;8231;50.866;7.944;2022-12-18T05:09:14;-10.10;99.90
16247;DHT22;8231;50.866;7.944;2022-12-18T05:11:43;-10.10;99.90
16247;DHT22;8231;50.866;7.944;2022-12-18T05:14:12;-10.00;99.90
16247;DHT22;8231;50.866;7.944;2022-12-18T05:16:40;-10.00;99.90
16247;DHT22;8231;50.866;7.944;2022-12-18T05:19:08;-9.90;99.90
16247;DHT22;8231;50.866;7.944;2022-12-18T05:21:38;-9.80;99.90
16247;DHT22;8231;50.866;7.944;2022-12-18T05:24:07;-9.70;99.90
16247;DHT22;8231;50.866;7.944;2022-12-18T05:26:35;-9.70;99.90
16247;DHT22;8231;50.866;7.944;2022-12-18T05:29:03;-9.50;99.90
16247;DHT22;8231;50.866;7.944;2022-12-18T05:31:31;-9.40;99.90
16247;DHT22;8231;50.866;7.944;2022-12-18T05:34:05;-9.20;99.90
16247;DHT22;8231;50.866;7.944;2022-12-18T05:36:34;-9.10;99.90
16247;DHT22;8231;50.866;7.944;2022-12-18T05:39:03;-8.90;99.90
16247;DHT22;8231;50.866;7.944;2022-12-18T05:41:31;-8.50;99.90
16247;DHT22;8231;50.866;7.944;2022-12-18T05:44:00;-8.40;99.90
16247;DHT22;8231;50.866;7.944;2022-12-18T05:46:28;-7.80;99.90
16247;DHT22;8231;50.866;7.944;2022-12-18T05:48:59;-7.60;99.90
16247;DHT22;8231;50.866;7.944;2022-12-18T05:51:27;-7.50;99.90
16247;DHT22;8231;50.866;7.944;2022-12-18T05:53:55;-7.30;99.90
16247;DHT22;8231;50.866;7.944;2022-12-18T05:56:24;-7.10;99.90
16247;DHT22;8231;50.866;7.944;2022-12-18T05:58:53;-7.10;99.90
16247;DHT22;8231;50.866;7.944;2022-12-18T06:01:24;-7.10;99.90
16247;DHT22;8231;50.866;7.944;2022-12-18T06:03:53;-6.90;99.90
16247;DHT22;8231;50.866;7.944;2022-12-18T06:06:23;-6.70;99.90
16247;DHT22;8231;50.866;7.944;2022-12-18T06:08:51;-6.70;99.90
16247;DHT22;8231;50.866;7.944;2022-12-18T06:11:22;-6.60;99.90
16247;DHT22;8231;50.866;7.944;2022-12-18T06:13:53;-6.60;99.90
16247;DHT22;8231;50.866;7.944;2022-12-18T06:16:26;-6.40;99.90
16247;DHT22;8231;50.866;7.944;2022-12-18T06:18:56;-6.20;99.90
16247;DHT22;8231;50.866;7.944;2022-12-18T06:21:25;-6.30;99.90
16247;DHT22;8231;50.866;7.944;2022-12-18T06:23:53;-6.20;99.90
16247;DHT22;8231;50.866;7.944;2022-12-18T06:26:22;-6.30;99.90
16247;DHT22;8231;50.866;7.944;2022-12-18T06:28:56;-6.10;99.90
16247;DHT22;8231;50.866;7.944;2022-12-18T06:31:24;-5.80;99.90
16247;DHT22;8231;50.866;7.944;2022-12-18T06:33:53;-5.70;99.90
16247;DHT22;8231;50.866;7.944;2022-12-18T06:36:21;-5.60;99.90
16247;DHT22;8231;50.866;7.944;2022-12-18T06:38:49;-5.70;99.90
16247;DHT22;8231;50.866;7.944;2022-12-18T06:41:19;-5.70;99.90
16247;DHT22;8231;50.866;7.944;2022-12-18T06:43:48;-5.80;99.90
16247;DHT22;8231;50.866;7.944;2022-12-18T06:46:17;-5.80;99.90
16247;DHT22;8231;50.866;7.944;2022-12-18T06:48:47;-5.80;99.90
16247;DHT22;8231;50.866;7.944;2022-12-18T06:51:20;-5.80;99.90
16247;DHT22;8231;50.866;7.944;2022-12-18T06:53:48;-5.70;99.90
16247;DHT22;8231;50.866;7.944;2022-12-18T06:56:16;-5.70;99.90
16247;DHT22;8231;50.866;7.944;2022-12-18T06:58:45;-5.70;99.90
16247;DHT22;8231;50.866;7.944;2022-12-18T07:01:13;-5.60;99.90
16247;DHT22;8231;50.866;7.944;2022-12-18T07:03:43;-5.60;99.90
16247;DHT22;8231;50.866;7.944;2022-12-18T07:06:16;-5.60;99.90
16247;DHT22;8231;50.866;7.944;2022-12-18T07:08:45;-5.60;99.90
16247;DHT22;8231;50.866;7.944;2022-12-18T07:11:14;-5.60;99.90
16247;DHT22;8231;50.866;7.944;2022-12-18T07:13:43;-5.50;99.90
16247;DHT22;8231;50.866;7.944;2022-12-18T07:16:12;-5.40;99.90
16247;DHT22;8231;50.866;7.944;2022-12-18T07:18:51;-5.40;99.90
16247;DHT22;8231;50.866;7.944;2022-12-18T07:21:19;-5.30;99.90
16247;DHT22;8231;50.866;7.944;2022-12-18T07:23:48;-5.30;99.90
16247;DHT22;8231;50.866;7.944;2022-12-18T07:26:17;-5.30;99.90
16247;DHT22;8231;50.866;7.944;2022-12-18T07:28:46;-5.30;99.90
16247;DHT22;8231;50.866;7.944;2022-12-18T07:31:17;-5.30;99.90
16247;DHT22;8231;50.866;7.944;2022-12-18T07:33:47;-5.20;99.90
16247;DHT22;8231;50.866;7.944;2022-12-18T07:36:18;-5.20;99.90
16247;DHT22;8231;50.866;7.944;2022-12-18T07:38:47;-5.30;99.90
16247;DHT22;8231;50.866;7.944;2022-12-18T07:41:15;-5.30;99.90
16247;DHT22;8231;50.866;7.944;2022-12-18T07:43:44;-5.30;99.90
16247;DHT22;8231;50.866;7.944;2022-12-18T07:46:13;-5.20;99.90
16247;DHT22;8231;50.866;7.944;2022-12-18T07:48:41;-5.10;99.90
16247;DHT22;8231;50.866;7.944;2022-12-18T07:51:17;-5.10;99.90
16247;DHT22;8231;50.866;7.944;2022-12-18T07:53:46;-5.10;99.90
16247;DHT22;8231;50.866;7.944;2022-12-18T07:56:19;-5.10;99.90
16247;DHT22;8231;50.866;7.944;2022-12-18T07:58:57;-5.00;99.90
16247;DHT22;8231;50.866;7.944;2022-12-18T08:01:28;-4.70;99.90
16247;DHT22;8231;50.866;7.944;2022-12-18T08:03:57;-4.80;99.90
16247;DHT22;8231;50.866;7.944;2022-12-18T08:06:26;-4.80;99.90
16247;DHT22;8231;50.866;7.944;2022-12-18T08:08:55;-4.70;99.90
16247;DHT22;8231;50.866;7.944;2022-12-18T08:11:25;-4.80;99.90
16247;DHT22;8231;50.866;7.944;2022-12-18T08:13:53;-4.80;99.90
16247;DHT22;8231;50.866;7.944;2022-12-18T08:16:22;-4.80;99.90
16247;DHT22;8231;50.866;7.944;2022-12-18T08:18:52;-4.70;99.90
16247;DHT22;8231;50.866;7.944;2022-12-18T08:21:22;-4.70;99.90
16247;DHT22;8231;50.866;7.944;2022-12-18T08:23:52;-4.60;99.90
16247;DHT22;8231;50.866;7.944;2022-12-18T08:26:22;-4.60;99.90
16247;DHT22;8231;50.866;7.944;2022-12-18T08:28:50;-4.60;99.90
16247;DHT22;8231;50.866;7.944;2022-12-18T08:31:19;-4.60;99.90
16247;DHT22;8231;50.866;7.944;2022-12-18T08:33:50;-4.60;99.90
16247;DHT22;8231;50.866;7.944;2022-12-18T08:36:20;-4.60;99.90
16247;DHT22;8231;50.866;7.944;2022-12-18T08:38:48;-4.50;99.90
16247;DHT22;8231;50.866;7.944;2022-12-18T08:41:18;-4.50;99.90
16247;DHT22;8231;50.866;7.944;2022-12-18T08:43:46;-4.50;99.90
16247;DHT22;8231;50.866;7.944;2022-12-18T08:46:35;-4.50;99.90
16247;DHT22;8231;50.866;7.944;2022-12-18T08:49:04;-4.40;99.90
16247;DHT22;8231;50.866;7.944;2022-12-18T08:51:33;-4.40;99.90
16247;DHT22;8231;50.866;7.944;2022-12-18T08:54:02;-4.40;99.90
16247;DHT22;8231;50.866;7.944;2022-12-18T08:56:34;-4.30;99.90
16247;DHT22;8231;50.866;7.944;2022-12-18T08:59:02;-4.30;99.90
16247;DHT22;8231;50.866;7.944;2022-12-18T09:01:31;-4.20;99.90
16247;DHT22;8231;50.866;7.944;2022-12-18T09:04:00;-4.10;99.90
16247;DHT22;8231;50.866;7.944;2022-12-18T09:06:28;-4.10;99.90
16247;DHT22;8231;50.866;7.944;2022-12-18T09:08:57;-4.00;99.90
16247;DHT22;8231;50.866;7.944;2022-12-18T09:11:27;-4.00;99.90
16247;DHT22;8231;50.866;7.944;2022-12-18T09:13:58;-3.90;99.90
16247;DHT22;8231;50.866;7.944;2022-12-18T09:16:28;-3.80;99.90
16247;DHT22;8231;50.866;7.944;2022-12-18T09:18:59;-3.80;99.90
16247;DHT22;8231;50.866;7.944;2022-12-18T09:21:29;-3.70;99.90
16247;DHT22;8231;50.866;7.944;2022-12-18T09:24:03;-3.70;99.90
16247;DHT22;8231;50.866;7.944;2022-12-18T09:26:35;-3.70;99.90
16247;DHT22;8231;50.866;7.944;2022-12-18T09:29:05;-3.60;99.90
16247;DHT22;8231;50.866;7.944;2022-12-18T09:31:36;-3.60;99.90
16247;DHT22;8231;50.866;7.944;2022-12-18T09:34:05;-3.50;99.90
16247;DHT22;8231;50.866;7.944;2022-12-18T09:36:34;-3.50;99.90
16247;DHT22;8231;50.866;7.944;2022-12-18T09:39:02;-3.40;99.90
16247;DHT22;8231;50.866;7.944;2022-12-18T09:41:43;-3.40;99.90
16247;DHT22;8231;50.866;7.944;2022-12-18T09:44:23;-3.30;99.90
16247;DHT22;8231;50.866;7.944;2022-12-18T09:46:58;-3.30;99.90
16247;DHT22;8231;50.866;7.944;2022-12-18T09:49:31;-3.20;99.90
16247;DHT22;8231;50.866;7.944;2022-12-18T09:52:03;-3.20;99.90
16247;DHT22;8231;50.866;7.944;2022-12-18T09:54:36;-3.20;99.90
16247;DHT22;8231;50.866;7.944;2022-12-18T09:57:06;-3.10;99.90
16247;DHT22;8231;50.866;7.944;2022-12-18T09:59:38;-3.10;99.90
16247;DHT22;8231;50.866;7.944;2022-12-18T10:02:14;-3.10;99.90
16247;DHT22;8231;50.866;7.944;2022-12-18T10:04:43;-3.10;99.90
16247;DHT22;8231;50.866;7.944;2022-12-18T10:07:16;-3.00;99.90
16247;DHT22;8231;50.866;7.944;2022-12-18T10:09:53;-2.90;99.90
16247;DHT22;8231;50.866;7.944;2022-12-18T10:12:32;-2.80;99.90
16247;DHT22;8231;50.866;7.944;2022-12-18T10:15:10;-2.80;99.90
16247;DHT22;8231;50.866;7.944;2022-12-18T10:17:45;-2.70;99.90
16247;DHT22;8231;50.866;7.944;2022-12-18T10:20:20;-2.60;99.90
16247;DHT22;8231;50.866;7.944;2022-12-18T10:22:56;-2.50;99.90
16247;DHT22;8231;50.866;7.944;2022-12-18T10:25:30;-2.40;99.90
16247;DHT22;8231;50.866;7.944;2022-12-18T10:28:07;-2.40;99.90
16247;DHT22;8231;50.866;7.944;2022-12-18T10:30:39;-2.70;99.90
16247;DHT22;8231;50.866;7.944;2022-12-18T10:33:10;-2.30;99.90
16247;DHT22;8231;50.866;7.944;2022-12-18T10:35:41;-2.20;99.90
16247;DHT22;8231;50.866;7.944;2022-12-18T10:38:21;-2.20;99.90
16247;DHT22;8231;50.866;7.944;2022-12-18T10:40:52;-2.20;99.90
16247;DHT22;8231;50.866;7.944;2022-12-18T10:43:24;-2.10;99.90
16247;DHT22;8231;50.866;7.944;2022-12-18T10:46:11;-2.00;99.90
16247;DHT22;8231;50.866;7.944;2022-12-18T10:48:51;-2.00;99.90
16247;DHT22;8231;50.866;7.944;2022-12-18T10:51:22;-2.00;99.90
16247;DHT22;8231;50.866;7.944;2022-12-18T10:53:56;-2.00;99.90
16247;DHT22;8231;50.866;7.944;2022-12-18T10:56:27;-1.80;99.90
16247;DHT22;8231;50.866;7.944;2022-12-18T10:58:58;-1.90;99.90
16247;DHT22;8231;50.866;7.944;2022-12-18T11:01:33;-1.80;99.90
16247;DHT22;8231;50.866;7.944;2022-12-18T11:04:17;-1.80;99.90
16247;DHT22;8231;50.866;7.944;2022-12-18T11:06:54;-1.80;99.90
16247;DHT22;8231;50.866;7.944;2022-12-18T11:09:24;-1.70;99.90
16247;DHT22;8231;50.866;7.944;2022-12-18T11:11:54;-1.70;99.90
16247;DHT22;8231;50.866;7.944;2022-12-18T11:14:24;-1.70;99.90
16247;DHT22;8231;50.866;7.944;2022-12-18T11:16:55;-1.70;99.90
16247;DHT22;8231;50.866;7.944;2022-12-18T11:19:44;-1.60;99.90
16247;DHT22;8231;50.866;7.944;2022-12-18T11:22:21;-1.60;99.90
16247;DHT22;8231;50.866;7.944;2022-12-18T11:24:53;-1.50;99.90
16247;DHT22;8231;50.866;7.944;2022-12-18T11:27:47;-1.50;99.90
16247;DHT22;8231;50.866;7.944;2022-12-18T11:30:22;-1.50;99.90
16247;DHT22;8231;50.866;7.944;2022-12-18T11:32:54;-1.50;99.90
16247;DHT22;8231;50.866;7.944;2022-12-18T11:35:32;-1.40;99.90
16247;DHT22;8231;50.866;7.944;2022-12-18T11:38:06;-1.50;99.90
16247;DHT22;8231;50.866;7.944;2022-12-18T11:40:42;-1.60;99.90
16247;DHT22;8231;50.866;7.944;2022-12-18T11:43:14;-1.50;99.90
16247;DHT22;8231;50.866;7.944;2022-12-18T11:45:48;-1.50;99.90
16247;DHT22;8231;50.866;7.944;2022-12-18T11:48:22;-1.40;99.90
16247;DHT22;8231;50.866;7.944;2022-12-18T11:50:53;-1.40;99.90
16247;DHT22;8231;50.866;7.944;2022-12-18T11:53:23;-1.40;99.90
16247;DHT22;8231;50.866;7.944;2022-12-18T11:56:02;-1.40;99.90
16247;DHT22;8231;50.866;7.944;2022-12-18T11:58:45;-1.50;99.90
16247;DHT22;8231;50.866;7.944;2022-12-18T12:01:22;-1.30;99.90
16247;DHT22;8231;50.866;7.944;2022-12-18T12:04:14;-1.00;99.90
16247;DHT22;8231;50.866;7.944;2022-12-18T12:06:48;-1.00;99.90
16247;DHT22;8231;50.866;7.944;2022-12-18T12:09:21;-1.10;99.90
16247;DHT22;8231;50.866;7.944;2022-12-18T12:12:00;-1.00;99.90
16247;DHT22;8231;50.866;7.944;2022-12-18T12:14:42;-1.10;99.90
16247;DHT22;8231;50.866;7.944;2022-12-18T12:17:20;-1.10;99.90
16247;DHT22;8231;50.866;7.944;2022-12-18T12:19:56;-1.10;99.90
16247;DHT22;8231;50.866;7.944;2022-12-18T12:22:34;-1.10;99.90
16247;DHT22;8231;50.866;7.944;2022-12-18T12:25:16;-1.30;99.90
16247;DHT22;8231;50.866;7.944;2022-12-18T12:27:52;-1.30;99.90
16247;DHT22;8231;50.866;7.944;2022-12-18T12:30:32;-1.60;99.90
16247;DHT22;8231;50.866;7.944;2022-12-18T12:33:15;-1.60;99.90
16247;DHT22;8231;50.866;7.944;2022-12-18T12:35:52;-1.60;99.90
16247;DHT22;8231;50.866;7.944;2022-12-18T12:38:27;-1.70;99.90
16247;DHT22;8231;50.866;7.944;2022-12-18T12:40:59;-1.70;99.90
16247;DHT22;8231;50.866;7.944;2022-12-18T12:43:35;-1.70;99.90
16247;DHT22;8231;50.866;7.944;2022-12-18T12:46:04;-1.80;99.90
16247;DHT22;8231;50.866;7.944;2022-12-18T12:48:42;-1.80;99.90
16247;DHT22;8231;50.866;7.944;2022-12-18T12:51:16;-1.80;99.90
16247;DHT22;8231;50.866;7.944;2022-12-18T12:53:46;-1.90;99.90
16247;DHT22;8231;50.866;7.944;2022-12-18T12:56:16;-2.00;99.90
16247;DHT22;8231;50.866;7.944;2022-12-18T12:58:55;-2.00;99.90
16247;DHT22;8231;50.866;7.944;2022-12-18T13:01:32;-2.10;99.90
16247;DHT22;8231;50.866;7.944;2022-12-18T13:04:14;-2.20;99.90
16247;DHT22;8231;50.866;7.944;2022-12-18T13:06:47;-2.20;99.90
16247;DHT22;8231;50.866;7.944;2022-12-18T13:09:18;-2.20;99.90
16247;DHT22;8231;50.866;7.944;2022-12-18T13:11:47;-2.30;99.90
16247;DHT22;8231;50.866;7.944;2022-12-18T13:14:34;-2.50;99.90
16247;DHT22;8231;50.866;7.944;2022-12-18T13:17:30;-2.60;99.90
16247;DHT22;8231;50.866;7.944;2022-12-18T13:20:10;-2.60;99.90
16247;DHT22;8231;50.866;7.944;2022-12-18T13:22:43;-2.60;99.90
16247;DHT22;8231;50.866;7.944;2022-12-18T13:25:31;-2.60;99.90
16247;DHT22;8231;50.866;7.944;2022-12-18T13:28:18;-2.60;99.90
16247;DHT22;8231;50.866;7.944;2022-12-18T13:30:56;-2.60;99.90
16247;DHT22;8231;50.866;7.944;2022-12-18T13:33:45;-2.70;99.90
16247;DHT22;8231;50.866;7.944;2022-12-18T13:36:34;-2.80;99.90
16247;DHT22;8231;50.866;7.944;2022-12-18T13:39:22;-2.90;99.90
16247;DHT22;8231;50.866;7.944;2022-12-18T13:42:31;-2.90;99.90
16247;DHT22;8231;50.866;7.944;2022-12-18T13:45:45;-2.80;99.90
16247;DHT22;8231;50.866;7.944;2022-12-18T13:48:24;-2.90;99.90
16247;DHT22;8231;50.866;7.944;2022-12-18T13:50:57;-3.10;99.90
16247;DHT22;8231;50.866;7.944;2022-12-18T13:53:29;-3.10;99.90
16247;DHT22;8231;50.866;7.944;2022-12-18T13:55:59;-3.00;99.90
16247;DHT22;8231;50.866;7.944;2022-12-18T13:58:28;-3.10;99.90
16247;DHT22;8231;50.866;7.944;2022-12-18T14:00:56;-3.20;99.90
16247;DHT22;8231;50.866;7.944;2022-12-18T14:03:28;-3.20;99.90
16247;DHT22;8231;50.866;7.944;2022-12-18T14:06:01;-3.10;99.90
16247;DHT22;8231;50.866;7.944;2022-12-18T14:08:35;-3.00;99.90
16247;DHT22;8231;50.866;7.944;2022-12-18T14:11:07;-3.10;99.90
16247;DHT22;8231;50.866;7.944;2022-12-18T14:13:42;-3.20;99.90
16247;DHT22;8231;50.866;7.944;2022-12-18T14:16:14;-3.30;99.90
16247;DHT22;8231;50.866;7.944;2022-12-18T14:18:45;-3.30;99.90
16247;DHT22;8231;50.866;7.944;2022-12-18T14:21:21;-3.20;99.90
16247;DHT22;8231;50.866;7.944;2022-12-18T14:24:04;-3.30;99.90
16247;DHT22;8231;50.866;7.944;2022-12-18T14:26:33;-3.30;99.90
16247;DHT22;8231;50.866;7.944;2022-12-18T14:29:18;-3.50;99.90
16247;DHT22;8231;50.866;7.944;2022-12-18T14:32:06;-3.60;99.90
16247;DHT22;8231;50.866;7.944;2022-12-18T14:34:42;-3.70;99.90
16247;DHT22;8231;50.866;7.944;2022-12-18T14:37:11;-3.70;99.90
16247;DHT22;8231;50.866;7.944;2022-12-18T14:39:40;-3.70;99.90
16247;DHT22;8231;50.866;7.944;2022-12-18T14:42:20;-3.70;99.90
16247;DHT22;8231;50.866;7.944;2022-12-18T14:44:48;-3.70;99.90
16247;DHT22;8231;50.866;7.944;2022-12-18T14:47:36;-3.70;99.90
16247;DHT22;8231;50.866;7.944;2022-12-18T14:50:12;-3.80;99.90
16247;DHT22;8231;50.866;7.944;2022-12-18T14:52:41;-3.70;99.90
16247;DHT22;8231;50.866;7.944;2022-12-18T14:55:15;-3.80;99.90
16247;DHT22;8231;50.866;7.944;2022-12-18T14:57:44;-3.80;99.90
16247;DHT22;8231;50.866;7.944;2022-12-18T15:00:17;-3.80;99.90
16247;DHT22;8231;50.866;7.944;2022-12-18T15:02:46;-3.90;99.90
16247;DHT22;8231;50.866;7.944;2022-12-18T15:05:19;-4.00;99.90
16247;DHT22;8231;50.866;7.944;2022-12-18T15:07:50;-4.00;99.90
16247;DHT22;8231;50.866;7.944;2022-12-18T15:10:20;-4.00;99.90
16247;DHT22;8231;50.866;7.944;2022-12-18T15:13:08;-4.00;99.90
16247;DHT22;8231;50.866;7.944;2022-12-18T15:15:48;-4.10;99.90
16247;DHT22;8231;50.866;7.944;2022-12-18T15:18:18;-4.20;99.90
16247;DHT22;8231;50.866;7.944;2022-12-18T15:20:49;-4.20;99.90
16247;DHT22;8231;50.866;7.944;2022-12-18T15:23:20;-4.20;99.90
16247;DHT22;8231;50.866;7.944;2022-12-18T15:25:55;-4.20;99.90
16247;DHT22;8231;50.866;7.944;2022-12-18T15:28:27;-4.20;99.90
16247;DHT22;8231;50.866;7.944;2022-12-18T15:31:05;-4.20;99.90
16247;DHT22;8231;50.866;7.944;2022-12-18T15:33:35;-4.20;99.90
16247;DHT22;8231;50.866;7.944;2022-12-18T15:36:08;-4.30;99.90
16247;DHT22;8231;50.866;7.944;2022-12-18T15:38:36;-4.20;99.90
16247;DHT22;8231;50.866;7.944;2022-12-18T15:41:04;-4.30;99.90
16247;DHT22;8231;50.866;7.944;2022-12-18T15:43:42;-4.30;99.90
16247;DHT22;8231;50.866;7.944;2022-12-18T15:46:13;-4.30;99.90
16247;DHT22;8231;50.866;7.944;2022-12-18T15:48:42;-4.30;99.90
16247;DHT22;8231;50.866;7.944;2022-12-18T15:51:14;-4.30;99.90
16247;DHT22;8231;50.866;7.944;2022-12-18T15:53:43;-4.30;99.90
16247;DHT22;8231;50.866;7.944;2022-12-18T15:56:13;-4.30;99.90
16247;DHT22;8231;50.866;7.944;2022-12-18T15:59:01;-4.40;99.90
16247;DHT22;8231;50.866;7.944;2022-12-18T16:01:30;-4.40;99.90
16247;DHT22;8231;50.866;7.944;2022-12-18T16:04:04;-4.40;99.90
16247;DHT22;8231;50.866;7.944;2022-12-18T16:06:32;-4.40;99.90
16247;DHT22;8231;50.866;7.944;2022-12-18T16:09:20;-4.40;99.90
16247;DHT22;8231;50.866;7.944;2022-12-18T16:11:52;-4.30;99.90
16247;DHT22;8231;50.866;7.944;2022-12-18T16:14:23;-4.30;99.90